createdAt,value
2024-05-09T00:00:39.268Z,3.90
2024-05-09T00:03:09.273Z,3.30
2024-05-09T00:05:38.118Z,4.10
2024-05-09T00:08:06.448Z,3.70
2024-05-09T00:10:37.453Z,3.72
2024-05-09T00:13:10.495Z,4.03
2024-05-09T00:15:38.423Z,4.03
2024-05-09T00:18:06.628Z,3.67
2024-05-09T00:20:38.972Z,3.75
2024-05-09T00:23:08.901Z,3.78
2024-05-09T00:25:36.749Z,4.15
2024-05-09T00:28:04.328Z,3.65
2024-05-09T00:30:36.468Z,3.67
2024-05-09T00:33:06.700Z,3.93
2024-05-09T00:35:35.485Z,3.38
2024-05-09T00:38:03.043Z,3.72
2024-05-09T00:40:39.134Z,3.50
2024-05-09T00:43:09.053Z,3.30
2024-05-09T00:45:38.947Z,3.78
2024-05-09T00:48:09.028Z,3.90
2024-05-09T00:50:41.523Z,3.53
2024-05-09T00:53:12.155Z,3.85
2024-05-09T00:55:40.473Z,4.13
2024-05-09T00:58:11.293Z,3.28
2024-05-09T01:00:41.827Z,3.60
2024-05-09T01:03:11.522Z,3.40
2024-05-09T01:05:41.049Z,3.67
2024-05-09T01:08:09.243Z,3.22
2024-05-09T01:10:37.243Z,4.20
2024-05-09T01:13:05.419Z,3.60
2024-05-09T01:15:33.226Z,3.50
2024-05-09T01:18:08.072Z,3.80
2024-05-09T01:20:41.611Z,3.72
2024-05-09T01:23:15.853Z,3.40
2024-05-09T01:25:44.446Z,3.90
2024-05-09T01:28:11.863Z,3.42
2024-05-09T01:30:39.174Z,3.80
2024-05-09T01:33:09.015Z,3.55
2024-05-09T01:35:38.249Z,3.40
2024-05-09T01:38:05.632Z,3.42
2024-05-09T01:40:38.825Z,3.38
2024-05-09T01:43:08.319Z,3.40
2024-05-09T01:45:36.382Z,3.22
2024-05-09T01:48:04.217Z,3.30
2024-05-09T01:53:02.023Z,3.35
2024-05-09T01:55:29.325Z,3.67
2024-05-09T01:57:59.236Z,3.33
2024-05-09T02:00:34.485Z,3.33
2024-05-09T02:03:08.968Z,3.50
2024-05-09T02:05:36.730Z,3.60
2024-05-09T02:08:04.770Z,3.50
2024-05-09T02:10:33.220Z,3.25
2024-05-09T02:13:03.537Z,3.63
2024-05-09T02:15:30.797Z,3.65
2024-05-09T02:17:58.243Z,3.28
2024-05-09T02:20:33.843Z,3.50
2024-05-09T02:23:04.752Z,3.40
2024-05-09T02:25:33.214Z,3.67
2024-05-09T02:28:03.583Z,3.20
2024-05-09T02:30:38.982Z,3.00
2024-05-09T02:33:09.706Z,3.00
2024-05-09T02:35:38.675Z,3.50
2024-05-09T02:38:06.150Z,3.40
2024-05-09T02:40:37.344Z,3.20
2024-05-09T02:43:10.653Z,3.17
2024-05-09T02:45:38.743Z,3.53
2024-05-09T02:48:07.579Z,3.50
2024-05-09T02:50:39.091Z,3.08
2024-05-09T02:53:08.121Z,3.45
2024-05-09T02:55:35.790Z,3.22
2024-05-09T02:58:03.079Z,3.28
2024-05-09T03:00:38.946Z,3.35
2024-05-09T03:03:10.969Z,3.40
2024-05-09T03:05:40.909Z,3.60
2024-05-09T03:08:08.493Z,3.10
2024-05-09T03:10:38.099Z,2.92
2024-05-09T03:13:07.225Z,3.40
2024-05-09T03:15:37.288Z,3.10
2024-05-09T03:18:06.083Z,3.03
2024-05-09T03:20:35.603Z,3.30
2024-05-09T03:23:04.419Z,2.92
2024-05-09T03:25:31.961Z,3.13
2024-05-09T03:27:59.344Z,2.90
2024-05-09T03:30:35.735Z,3.35
2024-05-09T03:33:14.115Z,3.20
2024-05-09T03:35:42.250Z,3.00
2024-05-09T03:38:09.784Z,3.13
2024-05-09T03:40:44.346Z,3.20
2024-05-09T03:43:11.730Z,3.20
2024-05-09T03:45:38.947Z,3.00
2024-05-09T03:48:07.193Z,2.63
2024-05-09T03:50:37.602Z,2.45
2024-05-09T03:53:05.528Z,3.10
2024-05-09T03:55:32.942Z,3.00
2024-05-09T03:58:00.271Z,3.22
2024-05-09T04:00:35.539Z,3.00
2024-05-09T04:03:09.336Z,3.58
2024-05-09T04:05:42.740Z,3.58
2024-05-09T04:08:11.330Z,2.92
2024-05-09T04:10:38.959Z,3.70
2024-05-09T04:13:06.388Z,3.42
2024-05-09T04:15:33.641Z,3.42
2024-05-09T04:18:01.831Z,3.22
2024-05-09T04:20:37.510Z,3.67
2024-05-09T04:23:12.099Z,3.15
2024-05-09T04:25:42.054Z,3.50
2024-05-09T04:28:10.606Z,2.97
2024-05-09T04:30:40.634Z,3.33
2024-05-09T04:33:11.848Z,3.20
2024-05-09T04:35:41.209Z,3.10
2024-05-09T04:38:11.624Z,3.95
2024-05-09T04:40:39.120Z,2.92
2024-05-09T04:43:07.121Z,3.17
2024-05-09T04:45:35.394Z,3.33
2024-05-09T04:48:03.360Z,3.00
2024-05-09T04:50:36.849Z,3.47
2024-05-09T04:53:07.410Z,2.95
2024-05-09T04:55:38.356Z,3.13
2024-05-09T04:58:08.316Z,3.85
2024-05-09T05:00:37.659Z,3.42
2024-05-09T05:03:08.465Z,3.22
2024-05-09T05:05:38.618Z,3.15
2024-05-09T05:08:06.842Z,4.00
2024-05-09T05:10:36.473Z,2.92
2024-05-09T05:13:06.923Z,3.50
2024-05-09T05:15:34.308Z,3.17
2024-05-09T05:18:01.773Z,3.08
2024-05-09T05:20:33.555Z,2.90
2024-05-09T05:23:01.578Z,3.17
2024-05-09T05:25:28.853Z,3.10
2024-05-09T05:27:56.075Z,3.13
2024-05-09T05:30:29.324Z,3.28
2024-05-09T05:33:01.929Z,3.22
2024-05-09T05:35:29.522Z,3.30
2024-05-09T05:37:57.024Z,3.40
2024-05-09T05:40:32.830Z,3.40
2024-05-09T05:43:03.959Z,3.50
2024-05-09T05:45:33.920Z,3.47
2024-05-09T05:48:05.501Z,3.38
2024-05-09T05:50:36.535Z,3.70
2024-05-09T05:53:08.113Z,3.75
2024-05-09T05:55:36.166Z,3.50
2024-05-09T05:58:03.926Z,3.65
2024-05-09T06:00:38.546Z,3.15
2024-05-09T06:03:08.472Z,3.10
2024-05-09T06:05:36.994Z,2.95
2024-05-09T06:08:05.360Z,3.50
2024-05-09T06:10:38.278Z,3.25
2024-05-09T06:13:08.297Z,2.90
2024-05-09T06:15:38.219Z,2.53
2024-05-09T06:18:06.347Z,2.83
2024-05-09T06:20:36.727Z,2.72
2024-05-09T06:23:06.334Z,3.15
2024-05-09T06:25:34.126Z,2.83
2024-05-09T06:28:01.861Z,2.70
2024-05-09T06:30:37.594Z,2.92
2024-05-09T06:33:12.974Z,2.70
2024-05-09T06:35:42.630Z,3.20
2024-05-09T06:38:10.277Z,2.60
2024-05-09T06:40:41.022Z,2.35
2024-05-09T06:43:11.514Z,2.90
2024-05-09T06:45:38.754Z,2.60
2024-05-09T06:48:10.373Z,2.60
2024-05-09T06:50:39.402Z,2.55
2024-05-09T06:53:07.735Z,2.75
2024-05-09T06:55:35.183Z,2.50
2024-05-09T06:58:02.496Z,2.72
2024-05-09T07:00:35.963Z,2.30
2024-05-09T07:03:12.630Z,2.72
2024-05-09T07:05:41.567Z,2.83
2024-05-09T07:08:09.167Z,2.47
2024-05-09T07:10:37.175Z,2.70
2024-05-09T07:13:08.544Z,2.60
2024-05-09T07:15:35.808Z,2.55
2024-05-09T07:18:11.334Z,2.75
2024-05-09T07:20:39.326Z,2.70
2024-05-09T07:23:09.467Z,2.60
2024-05-09T07:25:36.978Z,2.90
2024-05-09T07:28:04.794Z,2.67
2024-05-09T07:30:34.441Z,2.60
2024-05-09T07:33:03.133Z,2.50
2024-05-09T07:35:33.728Z,2.53
2024-05-09T07:38:01.311Z,2.90
2024-05-09T07:40:35.140Z,2.38
2024-05-09T07:43:04.799Z,2.22
2024-05-09T07:45:48.230Z,2.75
2024-05-09T07:52:38.043Z,2.80
2024-05-09T07:53:45.441Z,2.67
2024-05-09T07:56:16.522Z,2.67
2024-05-09T07:58:44.420Z,2.63
2024-05-09T08:01:11.919Z,2.38
2024-05-09T08:03:39.370Z,3.10
2024-05-09T08:06:09.386Z,2.75
2024-05-09T08:08:36.655Z,2.42
2024-05-09T08:11:04.103Z,3.03
2024-05-09T08:13:31.354Z,2.38
2024-05-09T08:15:58.638Z,2.97
2024-05-09T08:18:26.115Z,2.72
2024-05-09T08:20:53.470Z,2.83
2024-05-09T08:23:23.340Z,2.53
2024-05-09T08:25:50.614Z,2.78
2024-05-09T08:28:17.958Z,3.00
2024-05-09T08:30:45.500Z,2.67
2024-05-09T08:33:12.948Z,2.67
2024-05-09T08:35:40.220Z,2.28
2024-05-09T08:38:07.947Z,2.80
2024-05-09T08:40:38.436Z,2.47
2024-05-09T08:43:08.600Z,2.50
2024-05-09T08:45:36.652Z,2.30
2024-05-09T08:48:08.226Z,2.50
2024-05-09T08:50:39.410Z,2.35
2024-05-09T08:53:08.085Z,2.35
2024-05-09T08:55:41.836Z,2.35
2024-05-09T08:58:12.924Z,2.35
2024-05-09T09:00:42.354Z,2.47
2024-05-09T09:03:11.943Z,2.50
2024-05-09T09:05:40.897Z,2.67
2024-05-09T09:08:09.099Z,2.50
2024-05-09T09:10:40.077Z,2.53
2024-05-09T09:13:07.589Z,2.53
2024-05-09T09:15:34.997Z,2.70
2024-05-09T09:18:02.404Z,2.53
2024-05-09T09:20:36.114Z,2.38
2024-05-09T09:23:04.946Z,2.58
2024-05-09T09:25:32.479Z,2.35
2024-05-09T09:28:02.491Z,2.35
2024-05-09T09:30:36.523Z,2.38
2024-05-09T09:33:06.454Z,2.67
2024-05-09T09:35:34.780Z,2.20
2024-05-09T09:38:03.325Z,2.30
2024-05-09T09:40:36.220Z,2.40
2024-05-09T09:43:15.084Z,2.38
2024-05-09T09:45:44.461Z,2.20
2024-05-09T09:48:15.180Z,2.40
2024-05-09T09:50:42.862Z,2.30
2024-05-09T09:53:10.702Z,2.35
2024-05-09T09:55:38.866Z,2.42
2024-05-09T09:58:13.148Z,2.50
2024-05-09T10:00:42.144Z,2.63
2024-05-09T10:03:09.851Z,2.70
2024-05-09T10:05:38.328Z,2.65
2024-05-09T10:08:07.781Z,2.75
2024-05-09T10:10:37.183Z,2.00
2024-05-09T10:13:04.968Z,2.40
2024-05-09T10:15:45.248Z,2.70
2024-05-09T10:18:12.829Z,2.30
2024-05-09T10:20:44.571Z,2.40
2024-05-09T10:23:26.119Z,2.42
2024-05-09T10:25:58.445Z,2.35
2024-05-09T10:28:27.338Z,2.70
2024-05-09T10:31:08.324Z,2.35
2024-05-09T10:33:37.836Z,2.10
2024-05-09T10:36:10.804Z,2.25
2024-05-09T10:38:40.161Z,2.25
2024-05-09T10:41:08.777Z,2.10
2024-05-09T10:43:39.657Z,2.40
2024-05-09T10:46:10.585Z,2.33
2024-05-09T10:48:38.703Z,2.30
2024-05-09T10:51:06.500Z,2.30
2024-05-09T10:53:40.950Z,2.22
2024-05-09T10:56:08.472Z,2.45
2024-05-09T10:58:35.863Z,2.30
2024-05-09T11:01:06.743Z,2.17
2024-05-09T11:03:38.185Z,2.25
2024-05-09T11:06:06.477Z,2.40
2024-05-09T11:08:35.359Z,2.33
2024-05-09T11:11:03.693Z,2.47
2024-05-09T11:13:31.933Z,2.45
2024-05-09T11:16:00.508Z,2.38
2024-05-09T11:18:31.927Z,2.45
2024-05-09T11:21:13.533Z,2.65
2024-05-09T11:23:41.622Z,2.40
2024-05-09T11:26:09.269Z,2.47
2024-05-09T11:28:36.628Z,2.47
2024-05-09T11:31:08.456Z,2.40
2024-05-09T11:33:37.289Z,2.45
2024-05-09T11:36:08.419Z,2.30
2024-05-09T11:38:35.924Z,2.55
2024-05-09T11:41:03.346Z,2.53
2024-05-09T11:43:30.809Z,2.60
2024-05-09T11:45:58.647Z,2.40
2024-05-09T11:48:27.024Z,2.50
2024-05-09T11:50:55.088Z,2.50
2024-05-09T11:53:25.171Z,2.17
2024-05-09T11:55:52.704Z,2.10
2024-05-09T11:58:20.868Z,2.30
2024-05-09T12:00:48.380Z,2.30
2024-05-09T12:03:16.640Z,2.30
2024-05-09T12:05:44.431Z,2.50
2024-05-09T12:08:12.454Z,2.35
2024-05-09T12:10:42.752Z,2.10
2024-05-09T12:13:10.260Z,2.20
2024-05-09T12:15:38.578Z,2.33
2024-05-09T12:18:08.123Z,2.50
2024-05-09T12:20:38.902Z,2.00
2024-05-09T12:23:09.351Z,2.20
2024-05-09T12:25:38.601Z,2.40
2024-05-09T12:28:09.150Z,2.20
2024-05-09T12:30:39.676Z,2.42
2024-05-09T12:33:09.392Z,2.05
2024-05-09T12:35:37.140Z,2.42
2024-05-09T12:38:04.868Z,2.35
2024-05-09T12:40:36.748Z,2.13
2024-05-09T12:43:10.322Z,2.20
2024-05-09T12:45:39.189Z,2.22
2024-05-09T12:48:08.180Z,2.40
2024-05-09T12:50:36.831Z,2.20
2024-05-09T12:53:05.118Z,2.13
2024-05-09T12:55:40.641Z,2.10
2024-05-09T12:58:18.642Z,2.13
2024-05-09T13:00:46.604Z,2.08
2024-05-09T13:03:14.398Z,2.13
2024-05-09T13:05:42.117Z,2.00
2024-05-09T13:08:09.667Z,2.33
2024-05-09T13:10:37.202Z,2.05
2024-05-09T13:13:05.003Z,2.05
2024-05-09T13:15:35.110Z,2.20
2024-05-09T13:18:03.694Z,2.25
2024-05-09T13:20:34.056Z,2.03
2024-05-09T13:23:04.252Z,2.05
2024-05-09T13:25:32.179Z,2.33
2024-05-09T13:27:59.583Z,2.30
2024-05-09T13:30:35.516Z,2.33
2024-05-09T13:33:11.533Z,2.10
2024-05-09T13:35:41.938Z,2.28
2024-05-09T13:38:11.416Z,2.17
2024-05-09T13:40:38.811Z,2.40
2024-05-09T13:43:06.296Z,2.53
2024-05-09T13:45:34.245Z,2.35
2024-05-09T13:48:02.820Z,2.25
2024-05-09T13:50:35.996Z,2.30
2024-05-09T13:53:05.807Z,2.35
2024-05-09T13:55:34.199Z,2.35
2024-05-09T13:58:01.911Z,2.20
2024-05-09T14:00:41.966Z,2.42
2024-05-09T14:03:14.793Z,2.40
2024-05-09T14:05:45.488Z,2.22
2024-05-09T14:08:12.973Z,2.35
2024-05-09T14:10:40.358Z,2.28
2024-05-09T14:13:07.834Z,2.15
2024-05-09T14:15:35.280Z,2.10
2024-05-09T14:18:02.906Z,2.20
2024-05-09T14:20:32.119Z,2.20
2024-05-09T14:23:02.583Z,2.30
2024-05-09T14:25:30.972Z,1.85
2024-05-09T14:27:58.720Z,2.17
2024-05-09T14:30:34.401Z,2.00
2024-05-09T14:33:06.682Z,2.28
2024-05-09T14:35:34.960Z,2.40
2024-05-09T14:38:05.367Z,2.05
2024-05-09T14:43:03.874Z,2.10
2024-05-09T14:45:32.263Z,2.05
2024-05-09T14:47:59.709Z,2.15
2024-05-09T14:50:34.863Z,2.17
2024-05-09T14:53:08.509Z,2.20
2024-05-09T14:55:37.732Z,1.98
2024-05-09T14:58:07.221Z,2.28
2024-05-09T15:00:36.795Z,2.10
2024-05-09T15:03:05.902Z,2.10
2024-05-09T15:05:33.271Z,2.17
2024-05-09T15:08:00.964Z,1.77
2024-05-09T15:10:34.875Z,1.80
2024-05-09T15:13:04.288Z,2.20
2024-05-09T15:15:31.901Z,2.28
2024-05-09T15:18:00.174Z,2.28
2024-05-09T15:20:34.310Z,2.20
2024-05-09T15:23:05.379Z,2.35
2024-05-09T15:25:36.824Z,2.10
2024-05-09T15:28:05.390Z,2.05
2024-05-09T15:30:34.195Z,2.13
2024-05-09T15:33:02.647Z,1.83
2024-05-09T15:35:30.025Z,2.20
2024-05-09T15:37:57.397Z,2.03
2024-05-09T15:40:35.021Z,1.90
2024-05-09T15:43:11.135Z,2.00
2024-05-09T15:45:39.665Z,1.73
2024-05-09T15:48:08.989Z,2.17
2024-05-09T15:50:40.025Z,1.95
2024-05-09T15:53:10.415Z,2.35
2024-05-09T15:55:38.080Z,2.05
2024-05-09T15:58:06.555Z,2.00
2024-05-09T16:00:40.841Z,2.00
2024-05-09T16:03:11.735Z,2.13
2024-05-09T16:05:40.513Z,2.05
2024-05-09T16:08:08.960Z,1.85
2024-05-09T16:10:37.066Z,2.03
2024-05-09T16:13:05.681Z,2.10
2024-05-09T16:15:33.148Z,2.33
2024-05-09T16:18:03.243Z,2.13
2024-05-09T16:20:38.806Z,1.90
2024-05-09T16:23:09.229Z,2.10
2024-05-09T16:25:37.074Z,2.05
2024-05-09T16:28:08.537Z,2.17
2024-05-09T16:30:38.114Z,1.80
2024-05-09T16:33:08.925Z,2.30
2024-05-09T16:35:36.937Z,2.20
2024-05-09T16:38:04.793Z,1.95
2024-05-09T16:40:38.535Z,1.90
2024-05-09T16:43:08.720Z,1.90
2024-05-09T16:45:36.297Z,2.17
2024-05-09T16:48:04.210Z,2.00
2024-05-09T16:50:35.884Z,2.13
2024-05-09T16:53:04.844Z,2.10
2024-05-09T16:55:33.115Z,2.05
2024-05-09T16:58:01.030Z,1.95
2024-05-09T17:00:38.279Z,2.20
2024-05-09T17:03:10.493Z,1.83
2024-05-09T17:05:41.507Z,2.08
2024-05-09T17:08:09.389Z,2.00
2024-05-09T17:10:37.110Z,1.95
2024-05-09T17:13:06.776Z,1.88
2024-05-09T17:15:36.078Z,2.30
2024-05-09T17:18:04.729Z,2.20
2024-05-09T17:20:35.332Z,1.88
2024-05-09T17:23:07.084Z,1.83
2024-05-09T17:25:34.678Z,2.13
2024-05-09T17:28:02.469Z,2.00
2024-05-09T17:30:35.359Z,2.15
2024-05-09T17:33:09.138Z,1.90
2024-05-09T17:35:37.629Z,1.95
2024-05-09T17:38:08.013Z,2.25
2024-05-09T17:40:37.469Z,2.03
2024-05-09T17:43:07.064Z,2.10
2024-05-09T17:45:35.910Z,2.15
2024-05-09T17:48:03.652Z,2.10
2024-05-09T17:50:35.445Z,1.92
2024-05-09T17:53:07.404Z,2.03
2024-05-09T17:55:35.431Z,2.08
2024-05-09T17:58:03.700Z,2.03
2024-05-09T18:00:37.971Z,1.70
2024-05-09T18:03:09.025Z,2.22
2024-05-09T18:05:37.582Z,2.10
2024-05-09T18:08:08.913Z,1.70
2024-05-09T18:10:39.136Z,1.83
2024-05-09T18:13:08.480Z,1.70
2024-05-09T18:15:36.421Z,2.13
2024-05-09T18:18:04.697Z,2.17
2024-05-09T18:20:40.759Z,2.22
2024-05-09T18:23:16.618Z,1.77
2024-05-09T18:25:45.582Z,1.73
2024-05-09T18:28:13.293Z,2.05
2024-05-09T18:30:41.130Z,1.83
2024-05-09T18:33:09.995Z,1.90
2024-05-09T18:35:37.616Z,2.20
2024-05-09T18:38:05.809Z,2.10
2024-05-09T18:40:38.120Z,1.95
2024-05-09T18:43:08.312Z,2.30
2024-05-09T18:45:37.067Z,1.85
2024-05-09T18:48:06.322Z,2.25
2024-05-09T18:50:37.911Z,2.20
2024-05-09T18:53:08.250Z,2.25
2024-05-09T18:55:38.232Z,1.85
2024-05-09T18:58:05.876Z,2.10
2024-05-09T19:00:37.092Z,1.92
2024-05-09T19:05:36.059Z,2.28
2024-05-09T19:08:03.961Z,2.00
2024-05-09T19:10:34.638Z,1.83
2024-05-09T19:13:10.420Z,2.03
2024-05-09T19:15:40.850Z,2.17
2024-05-09T19:18:08.721Z,2.20
2024-05-09T19:20:37.147Z,2.35
2024-05-09T19:23:06.595Z,2.17
2024-05-09T19:25:34.579Z,1.90
2024-05-09T19:28:02.108Z,2.00
2024-05-09T19:30:38.842Z,2.20
2024-05-09T19:33:10.176Z,1.92
2024-05-09T19:35:38.445Z,2.40
2024-05-09T19:38:05.842Z,2.38
2024-05-09T19:40:34.624Z,2.03
2024-05-09T19:43:03.562Z,1.95
2024-05-09T19:45:34.836Z,2.33
2024-05-09T19:48:03.517Z,2.50
2024-05-09T19:50:37.656Z,2.05
2024-05-09T19:53:10.585Z,2.40
2024-05-09T19:55:38.524Z,2.15
2024-05-09T19:58:07.451Z,2.40
2024-05-09T20:00:41.472Z,1.92
2024-05-09T20:03:12.047Z,2.17
2024-05-09T20:05:39.926Z,1.80
2024-05-09T20:08:07.975Z,2.33
2024-05-09T20:10:36.495Z,2.03
2024-05-09T20:13:06.410Z,2.40
2024-05-09T20:15:38.341Z,2.53
2024-05-09T20:18:06.940Z,2.00
2024-05-09T20:20:39.577Z,2.30
2024-05-09T20:23:10.096Z,2.47
2024-05-09T20:25:37.548Z,1.88
2024-05-09T20:28:05.762Z,2.35
2024-05-09T20:30:34.377Z,2.33
2024-05-09T20:33:07.314Z,2.25
2024-05-09T20:35:36.034Z,1.90
2024-05-09T20:38:04.315Z,2.20
2024-05-09T20:40:35.996Z,2.00
2024-05-09T20:45:34.852Z,1.85
2024-05-09T20:48:05.931Z,2.03
2024-05-09T20:50:39.214Z,2.20
2024-05-09T20:53:09.567Z,2.00
2024-05-09T20:55:37.033Z,2.20
2024-05-09T20:58:04.635Z,2.10
2024-05-09T21:00:39.109Z,2.08
2024-05-09T21:03:13.465Z,2.10
2024-05-09T21:05:42.063Z,2.13
2024-05-09T21:08:09.637Z,2.13
2024-05-09T21:10:37.714Z,2.20
2024-05-09T21:13:06.916Z,1.80
2024-05-09T21:15:35.596Z,1.80
2024-05-09T21:18:04.050Z,2.08
2024-05-09T21:20:34.416Z,2.10
2024-05-09T21:23:02.662Z,2.25
2024-05-09T21:25:30.317Z,2.13
2024-05-09T21:27:57.880Z,2.40
2024-05-09T21:30:38.182Z,2.10
2024-05-09T21:33:11.185Z,1.90
2024-05-09T21:35:43.842Z,2.03
2024-05-09T21:38:11.816Z,2.30
2024-05-09T21:40:39.201Z,2.45
2024-05-09T21:43:07.903Z,2.55
2024-05-09T21:45:36.614Z,2.42
2024-05-09T21:48:05.271Z,1.98
2024-05-09T21:50:39.331Z,2.15
2024-05-09T21:53:12.864Z,2.00
2024-05-09T21:55:40.781Z,2.40
2024-05-09T21:58:08.321Z,2.28
2024-05-09T22:00:38.084Z,2.33
2024-05-09T22:03:07.095Z,2.15
2024-05-09T22:05:35.324Z,2.10
2024-05-09T22:08:02.829Z,2.00
2024-05-09T22:10:35.235Z,2.20
2024-05-09T22:13:04.720Z,2.15
2024-05-09T22:15:32.972Z,2.22
2024-05-09T22:18:00.464Z,2.30
2024-05-09T22:20:34.411Z,2.30
2024-05-09T22:23:05.510Z,2.25
2024-05-09T22:25:35.558Z,2.20
2024-05-09T22:28:03.781Z,2.22
2024-05-09T22:30:36.215Z,2.20
2024-05-09T22:33:07.032Z,2.17
2024-05-09T22:35:34.607Z,2.08
2024-05-09T22:38:02.756Z,2.00
2024-05-09T22:40:38.950Z,2.00
2024-05-09T22:43:17.424Z,2.50
2024-05-09T22:45:45.192Z,2.42
2024-05-09T22:48:12.849Z,2.30
2024-05-09T22:50:40.716Z,2.10
2024-05-09T22:53:08.113Z,1.80
2024-05-09T22:55:35.496Z,1.92
2024-05-09T22:58:02.888Z,2.05
2024-05-09T23:00:33.383Z,2.13
2024-05-09T23:03:01.952Z,1.92
2024-05-09T23:05:29.922Z,1.70
2024-05-09T23:07:57.296Z,2.00
2024-05-09T23:10:31.712Z,1.90
2024-05-09T23:13:03.883Z,2.10
2024-05-09T23:15:34.148Z,2.05
2024-05-09T23:18:01.694Z,2.10
2024-05-09T23:20:36.366Z,2.03
2024-05-09T23:23:06.657Z,1.90
2024-05-09T23:25:34.194Z,2.30
2024-05-09T23:28:01.874Z,2.10
2024-05-09T23:30:37.142Z,1.90
2024-05-09T23:33:11.483Z,2.15
2024-05-09T23:35:38.967Z,2.38
2024-05-09T23:38:06.284Z,2.05
2024-05-09T23:40:38.738Z,2.13
2024-05-09T23:43:09.024Z,2.00
2024-05-09T23:45:36.805Z,2.20
2024-05-09T23:48:05.162Z,1.83
2024-05-09T23:50:37.858Z,2.13
2024-05-09T23:53:08.663Z,2.20
2024-05-09T23:55:37.161Z,2.13
2024-05-09T23:58:05.089Z,2.30
